Nysted, Nebraska
Current Conditions -  °F | °C
As of 2:53 AM on Saturday 22 Nov 2014 (Local Time) from KGRI Reporting Station
Haze Haze  
Wind Chill: 27°   Ceiling: Unl
Heat Index: 34°   Visibility: 4mi
Dew Point: 32°   Wind: 9mph
Humidity: 92%   Direction: 200°SSW
Pressure: 29.89"   Gusts: NA
Location:  41.1605°N, 98.5709°W
Report Text: KGRI 220853Z AUTO 20008KT 4SM BR CLR 01/00 A2989 RMK AO2 SLP137 T00110000 56013
Loading
Personal Weather Stations






























Interactive Weather Map New forecast layout! Learn more

10-Day Weather Forecast

Advertisements
Track Severe Weather on mobile